createdAt,value
2017-01-27T00:00:30.913Z,20.4
2017-01-27T00:01:11.410Z,20.42
2017-01-27T00:01:51.902Z,20.37
2017-01-27T00:02:32.401Z,20.35
2017-01-27T00:03:12.882Z,20.38
2017-01-27T00:03:53.380Z,20.37
2017-01-27T00:04:33.867Z,20.41
2017-01-27T00:05:14.388Z,20.41
2017-01-27T00:05:54.878Z,20.37
2017-01-27T00:06:35.373Z,20.3
2017-01-27T00:07:15.859Z,20.35
2017-01-27T00:07:56.339Z,20.37
2017-01-27T00:08:36.827Z,20.51
2017-01-27T00:09:17.307Z,20.49
2017-01-27T00:09:57.798Z,20.37
2017-01-27T00:10:38.320Z,20.34
2017-01-27T00:11:18.825Z,20.4
2017-01-27T00:11:59.313Z,20.41
2017-01-27T00:12:39.802Z,20.4
2017-01-27T00:13:20.294Z,20.32
2017-01-27T00:14:00.781Z,20.35
2017-01-27T00:14:41.268Z,20.27
2017-01-27T00:15:21.751Z,20.35
2017-01-27T00:16:02.248Z,20.32
2017-01-27T00:16:42.741Z,20.37
2017-01-27T00:17:23.232Z,20.26
2017-01-27T00:18:03.725Z,20.4
2017-01-27T00:18:44.238Z,20.26
2017-01-27T00:19:24.740Z,20.41
2017-01-27T00:20:05.227Z,20.27
2017-01-27T00:20:46.251Z,20.42
2017-01-27T00:21:26.735Z,20.4
2017-01-27T00:22:07.225Z,20.38
2017-01-27T00:22:47.711Z,20.38
2017-01-27T00:23:28.216Z,20.34
2017-01-27T00:24:08.709Z,20.32
2017-01-27T00:24:49.201Z,20.25
2017-01-27T00:25:29.700Z,20.38
2017-01-27T00:26:10.177Z,20.37
2017-01-27T00:26:50.668Z,20.37
2017-01-27T00:27:31.165Z,20.35
2017-01-27T00:28:11.659Z,20.32
2017-01-27T00:28:52.146Z,20.25
2017-01-27T00:29:32.635Z,20.32
2017-01-27T00:30:13.147Z,20.4
2017-01-27T00:30:53.637Z,20.4
2017-01-27T00:31:34.161Z,20.35
2017-01-27T00:32:14.625Z,20.29
2017-01-27T00:32:55.111Z,20.23
2017-01-27T00:33:35.586Z,20.27
2017-01-27T00:34:16.067Z,20.3
2017-01-27T00:34:56.557Z,20.32
2017-01-27T00:35:37.042Z,20.35
2017-01-27T00:36:17.534Z,20.34
2017-01-27T00:36:58.032Z,20.29
2017-01-27T00:37:38.517Z,20.32
2017-01-27T00:38:19.002Z,20.34
2017-01-27T00:38:59.487Z,20.26
2017-01-27T00:39:39.981Z,20.25
2017-01-27T00:40:20.469Z,20.34
2017-01-27T00:41:00.972Z,20.3
2017-01-27T00:41:41.475Z,20.35
2017-01-27T00:42:21.970Z,20.38
2017-01-27T00:43:02.470Z,20.32
2017-01-27T00:43:42.974Z,20.26
2017-01-27T00:44:23.465Z,20.26
2017-01-27T00:45:03.967Z,20.2
2017-01-27T00:45:44.471Z,20.25
2017-01-27T00:46:24.965Z,20.25
2017-01-27T00:47:05.468Z,20.2
2017-01-27T00:47:45.959Z,20.26
2017-01-27T00:48:26.468Z,20.34
2017-01-27T00:49:06.955Z,20.23
2017-01-27T00:49:47.468Z,20.26
2017-01-27T00:50:27.953Z,20.29
2017-01-27T00:51:08.462Z,20.27
2017-01-27T00:51:48.947Z,20.27
2017-01-27T00:52:29.440Z,20.32
2017-01-27T00:53:09.920Z,20.25
2017-01-27T00:53:50.415Z,20.22
2017-01-27T00:54:30.912Z,20.27
2017-01-27T00:55:11.407Z,20.26
2017-01-27T00:55:51.909Z,20.25
2017-01-27T00:56:32.398Z,20.32
2017-01-27T00:57:12.903Z,20.27
2017-01-27T00:57:53.393Z,20.26
2017-01-27T00:58:33.885Z,20.27
2017-01-27T00:59:14.392Z,20.34
2017-01-27T00:59:54.884Z,20.34
2017-01-27T01:00:35.372Z,20.3
2017-01-27T01:01:15.948Z,20.3
2017-01-27T01:01:56.448Z,20.25
2017-01-27T01:02:36.958Z,20.2
2017-01-27T01:03:17.451Z,20.32
2017-01-27T01:03:57.952Z,20.32
2017-01-27T01:04:38.451Z,20.29
2017-01-27T01:05:18.947Z,20.22
2017-01-27T01:05:59.454Z,20.32
2017-01-27T01:06:39.946Z,20.26
2017-01-27T01:07:20.453Z,20.23
2017-01-27T01:08:00.941Z,20.27
2017-01-27T01:08:41.438Z,20.19
2017-01-27T01:09:21.938Z,20.23
2017-01-27T01:10:02.425Z,20.2
2017-01-27T01:10:42.919Z,20.2
2017-01-27T01:11:23.415Z,20.23
2017-01-27T01:12:03.919Z,20.25
2017-01-27T01:12:44.409Z,20.2
2017-01-27T01:13:24.896Z,20.16
2017-01-27T01:14:05.384Z,20.11
2017-01-27T01:14:45.868Z,20.23
2017-01-27T01:15:26.352Z,20.29
2017-01-27T01:16:06.848Z,20.29
2017-01-27T01:16:47.340Z,20.32
2017-01-27T01:17:27.834Z,20.22
2017-01-27T01:18:08.337Z,20.29
2017-01-27T01:18:48.825Z,20.35
2017-01-27T01:19:29.332Z,20.34
2017-01-27T01:20:09.824Z,20.38
2017-01-27T01:20:50.337Z,20.32
2017-01-27T01:21:30.817Z,20.2
2017-01-27T01:22:11.306Z,20.26
2017-01-27T01:22:51.794Z,20.3
2017-01-27T01:23:32.283Z,20.26
2017-01-27T01:24:12.782Z,20.25
2017-01-27T01:24:53.270Z,20.23
2017-01-27T01:25:33.756Z,20.2
2017-01-27T01:26:14.252Z,20.25
2017-01-27T01:26:54.751Z,20.2
2017-01-27T01:27:35.239Z,20.19
2017-01-27T01:28:15.732Z,20.22
2017-01-27T01:28:56.295Z,20.16
2017-01-27T01:29:36.777Z,20.27
2017-01-27T01:30:17.269Z,20.29
2017-01-27T01:30:57.754Z,20.25
2017-01-27T01:31:38.239Z,20.23
2017-01-27T01:32:18.747Z,20.29
2017-01-27T01:32:59.227Z,20.27
2017-01-27T01:33:39.717Z,20.32
2017-01-27T01:34:20.220Z,20.26
2017-01-27T01:35:00.711Z,20.19
2017-01-27T01:35:41.218Z,20.2
2017-01-27T01:36:21.714Z,20.22
2017-01-27T01:37:02.220Z,20.11
2017-01-27T01:37:42.705Z,20.12
2017-01-27T01:38:23.197Z,20.07
2017-01-27T01:39:03.690Z,20.12
2017-01-27T01:39:44.181Z,20.11
2017-01-27T01:40:24.666Z,20.19
2017-01-27T01:41:05.156Z,20.19
2017-01-27T01:41:45.644Z,20.25
2017-01-27T01:42:26.153Z,20.35
2017-01-27T01:43:06.639Z,20.25
2017-01-27T01:43:47.134Z,20.29
2017-01-27T01:44:27.627Z,20.32
2017-01-27T01:45:08.111Z,20.3
2017-01-27T01:45:48.603Z,20.34
2017-01-27T01:46:29.086Z,20.3
2017-01-27T01:47:09.575Z,20.25
2017-01-27T01:47:50.075Z,20.23
2017-01-27T01:48:30.562Z,20.26
2017-01-27T01:49:11.057Z,20.27
2017-01-27T01:49:51.566Z,20.22
2017-01-27T01:50:32.069Z,20.2
2017-01-27T01:51:12.552Z,20.23
2017-01-27T01:51:53.048Z,20.19
2017-01-27T01:52:33.525Z,20.25
2017-01-27T01:53:14.020Z,20.23
2017-01-27T01:53:54.526Z,20.23
2017-01-27T01:54:35.024Z,20.3
2017-01-27T01:55:15.527Z,20.29
2017-01-27T01:55:56.003Z,20.23
2017-01-27T01:56:36.494Z,20.26
2017-01-27T01:57:16.991Z,20.2
2017-01-27T01:57:57.482Z,20.19
2017-01-27T01:58:37.973Z,20.23
2017-01-27T01:59:18.453Z,20.23
2017-01-27T01:59:59.001Z,20.26
2017-01-27T02:00:39.497Z,20.27
2017-01-27T02:01:19.990Z,20.19
2017-01-27T02:02:00.483Z,20.25
2017-01-27T02:02:40.967Z,20.23
2017-01-27T02:03:21.462Z,20.12
2017-01-27T02:04:01.943Z,20.29
2017-01-27T02:04:42.437Z,20.12
2017-01-27T02:05:22.930Z,20.19
2017-01-27T02:06:03.454Z,20.16
2017-01-27T02:06:43.942Z,20.1
2017-01-27T02:08:41.622Z,20.19
2017-01-27T02:09:22.093Z,20.23
2017-01-27T02:10:02.586Z,20.27
2017-01-27T02:10:43.084Z,20.18
2017-01-27T02:11:23.580Z,20.16
2017-01-27T02:12:04.067Z,20.23
2017-01-27T02:12:44.551Z,20.18
2017-01-27T02:13:25.041Z,20.22
2017-01-27T02:14:05.537Z,20.22
2017-01-27T02:14:46.014Z,20.2
2017-01-27T02:15:26.512Z,20.19
2017-01-27T02:16:06.993Z,20.35
2017-01-27T02:16:47.484Z,20.32
2017-01-27T02:17:27.986Z,20.35
2017-01-27T02:18:08.484Z,20.32
2017-01-27T02:18:48.980Z,20.22
2017-01-27T02:19:29.478Z,20.2
2017-01-27T02:20:09.957Z,20.19
2017-01-27T02:20:50.443Z,20.22
2017-01-27T02:21:30.934Z,20.25
2017-01-27T02:22:11.434Z,20.15
2017-01-27T02:22:51.928Z,20.1
2017-01-27T02:23:32.425Z,20.18
2017-01-27T02:24:12.919Z,20.15
2017-01-27T02:24:53.422Z,20.19
2017-01-27T02:25:33.910Z,20.18
2017-01-27T02:26:14.401Z,20.16
2017-01-27T02:26:54.881Z,20.12
2017-01-27T02:27:35.371Z,20.16
2017-01-27T02:28:15.867Z,20.16
2017-01-27T02:28:56.377Z,20.12
2017-01-27T02:29:36.868Z,20.12
2017-01-27T02:30:17.365Z,20.11
2017-01-27T02:30:57.874Z,20.07
2017-01-27T02:31:38.367Z,20.15
2017-01-27T02:32:18.874Z,20.15
2017-01-27T02:32:59.367Z,20.15
2017-01-27T02:33:39.867Z,20.2
2017-01-27T02:34:20.354Z,20.2
2017-01-27T02:35:00.839Z,20.22
2017-01-27T02:35:41.323Z,20.15
2017-01-27T02:36:21.817Z,20.22
2017-01-27T02:37:02.305Z,20.25
2017-01-27T02:37:42.814Z,20.2
2017-01-27T02:38:23.300Z,20.27
2017-01-27T02:39:03.805Z,20.11
2017-01-27T02:39:44.309Z,20.16
2017-01-27T02:40:24.952Z,20.15
2017-01-27T02:41:05.459Z,20.26
2017-01-27T02:41:46.808Z,20.27
2017-01-27T02:42:27.336Z,20.25
2017-01-27T02:43:07.820Z,20.15
2017-01-27T02:43:48.307Z,20.1
2017-01-27T02:44:28.786Z,20.11
2017-01-27T02:45:09.281Z,20.18
2017-01-27T02:45:49.775Z,20.15
2017-01-27T02:46:30.305Z,20.12
2017-01-27T02:47:10.800Z,20.19
2017-01-27T02:47:51.294Z,20.16
2017-01-27T02:48:31.775Z,20.05
2017-01-27T02:49:12.268Z,20.08
2017-01-27T02:49:52.771Z,20.15
2017-01-27T02:50:33.263Z,20.11
2017-01-27T02:51:13.750Z,20.1
2017-01-27T02:51:54.243Z,20.08
2017-01-27T02:52:34.741Z,20.11
2017-01-27T02:53:15.220Z,20.11
2017-01-27T02:53:55.708Z,20.11
2017-01-27T02:54:36.293Z,20.05
2017-01-27T02:55:16.769Z,20.12
2017-01-27T02:55:57.283Z,20.1
2017-01-27T02:56:37.772Z,20.18
2017-01-27T02:57:18.254Z,20.18
2017-01-27T02:57:58.766Z,20.11
2017-01-27T02:58:39.256Z,20.1
2017-01-27T02:59:19.742Z,20.15
2017-01-27T03:00:00.233Z,20.15
2017-01-27T03:00:40.730Z,20.15
2017-01-27T03:01:21.219Z,20.1
2017-01-27T03:02:01.714Z,20.1
2017-01-27T03:02:42.210Z,20.12
2017-01-27T03:03:22.703Z,20.16
2017-01-27T03:04:03.206Z,20.16
2017-01-27T03:04:43.703Z,20.2
2017-01-27T03:05:24.215Z,20.16
2017-01-27T03:06:04.692Z,20.15
2017-01-27T03:06:45.183Z,20.18
2017-01-27T03:07:25.659Z,20.16
2017-01-27T03:08:06.146Z,20.16
2017-01-27T03:08:46.645Z,20.12
2017-01-27T03:09:27.143Z,20.15
2017-01-27T03:10:07.649Z,20.22
2017-01-27T03:10:48.163Z,20.26
2017-01-27T03:11:28.627Z,20.25
2017-01-27T03:12:09.118Z,20.1
2017-01-27T03:12:49.624Z,20.18
2017-01-27T03:13:30.116Z,20.1
2017-01-27T03:14:10.570Z,20.12
2017-01-27T03:14:51.068Z,20.16
2017-01-27T03:15:31.685Z,20.12
2017-01-27T03:16:12.251Z,20.18
2017-01-27T03:16:52.752Z,20.1
2017-01-27T03:17:33.249Z,20.11
2017-01-27T03:18:13.749Z,20.16
2017-01-27T03:18:54.379Z,20.18
2017-01-27T03:19:34.855Z,20.12
2017-01-27T03:20:15.357Z,20.12
2017-01-27T03:20:55.835Z,20.1
2017-01-27T03:21:36.374Z,20.16
2017-01-27T03:22:16.872Z,20.12
2017-01-27T03:22:57.384Z,20.12
2017-01-27T03:23:37.871Z,20.1
2017-01-27T03:24:18.371Z,20.1
2017-01-27T03:24:58.853Z,20.15
2017-01-27T03:25:39.347Z,20.12
2017-01-27T03:26:19.841Z,20.07
2017-01-27T03:27:00.328Z,20.15
2017-01-27T03:27:40.821Z,20.11
2017-01-27T03:28:21.306Z,20.05
2017-01-27T03:29:01.812Z,20.15
2017-01-27T03:29:42.288Z,20.1
2017-01-27T03:30:22.790Z,20.16
2017-01-27T03:31:03.286Z,20.18
2017-01-27T03:31:43.786Z,20.19
2017-01-27T03:32:24.289Z,20.16
2017-01-27T03:33:04.767Z,20.2
2017-01-27T03:33:45.254Z,20.16
2017-01-27T03:34:25.737Z,20.15
2017-01-27T03:35:06.232Z,20.15
2017-01-27T03:35:46.734Z,20.07
2017-01-27T03:36:27.227Z,20.07
2017-01-27T03:37:07.712Z,20.15
2017-01-27T03:37:48.229Z,20.05
2017-01-27T03:38:28.729Z,20.07
2017-01-27T03:39:09.226Z,20.12
2017-01-27T03:39:49.727Z,20.11
2017-01-27T03:40:30.218Z,20
2017-01-27T03:41:10.708Z,20.02
2017-01-27T03:41:51.202Z,20.15
2017-01-27T03:42:31.697Z,20.12
2017-01-27T03:43:12.177Z,20.15
2017-01-27T03:43:52.674Z,20.05
2017-01-27T03:44:33.175Z,20.11
2017-01-27T03:45:13.666Z,20.05
2017-01-27T03:45:54.148Z,20.1
2017-01-27T03:46:34.866Z,20.04
2017-01-27T03:47:15.534Z,20.12
2017-01-27T03:47:56.031Z,20.05
2017-01-27T03:48:36.514Z,20.11
2017-01-27T03:49:17.000Z,20.11
2017-01-27T03:49:57.500Z,20.16
2017-01-27T03:50:37.999Z,20.11
2017-01-27T03:51:18.778Z,20.11
2017-01-27T03:51:59.272Z,20.1
2017-01-27T03:52:39.774Z,20.16
2017-01-27T03:53:20.275Z,20.15
2017-01-27T03:54:00.782Z,20.07
2017-01-27T03:54:41.269Z,20.15
2017-01-27T03:55:21.778Z,20.1
2017-01-27T03:56:02.269Z,20.1
2017-01-27T03:56:42.773Z,20.07
2017-01-27T03:57:23.261Z,19.98
2017-01-27T03:58:03.752Z,20.02
2017-01-27T03:58:44.231Z,20.02
2017-01-27T03:59:24.723Z,19.93
2017-01-27T04:00:05.222Z,20
2017-01-27T04:00:45.714Z,20.04
2017-01-27T04:01:26.218Z,19.98
2017-01-27T04:02:06.701Z,20.04
2017-01-27T04:02:47.189Z,20
2017-01-27T04:03:27.663Z,20.04
2017-01-27T04:04:08.156Z,19.92
2017-01-27T04:04:48.643Z,19.9
2017-01-27T04:05:29.130Z,19.98
2017-01-27T04:06:09.637Z,19.98
2017-01-27T04:06:50.119Z,20.05
2017-01-27T04:07:30.615Z,19.95
2017-01-27T04:08:11.111Z,19.9
2017-01-27T04:08:51.613Z,19.86
2017-01-27T04:09:32.102Z,19.97
2017-01-27T04:10:12.585Z,20
2017-01-27T04:10:53.080Z,19.9
2017-01-27T04:11:33.563Z,19.95
2017-01-27T04:12:14.044Z,19.89
2017-01-27T04:12:54.526Z,19.97
2017-01-27T04:13:35.015Z,19.95
2017-01-27T04:14:15.498Z,20.02
2017-01-27T04:14:56.007Z,19.97
2017-01-27T04:15:36.498Z,20.01
2017-01-27T04:16:17.006Z,19.97
2017-01-27T04:16:57.486Z,20.15
2017-01-27T04:17:37.979Z,20.11
2017-01-27T04:18:18.468Z,20.11
2017-01-27T04:18:58.973Z,20.08
2017-01-27T04:19:39.439Z,20.05
2017-01-27T04:20:19.951Z,20.05
2017-01-27T04:21:00.448Z,19.98
2017-01-27T04:21:40.938Z,20.05
2017-01-27T04:22:21.435Z,19.97
2017-01-27T04:23:01.937Z,20.1
2017-01-27T04:23:42.442Z,20.1
2017-01-27T04:24:22.935Z,20.04
2017-01-27T04:25:03.443Z,19.98
2017-01-27T04:25:43.932Z,20
2017-01-27T04:26:24.419Z,20.04
2017-01-27T04:27:04.914Z,19.97
2017-01-27T04:27:45.413Z,20.08
2017-01-27T04:28:25.892Z,20
2017-01-27T04:29:06.373Z,20.02
2017-01-27T04:29:46.863Z,20
2017-01-27T04:30:27.347Z,20.02
2017-01-27T04:31:07.855Z,19.97
2017-01-27T04:31:48.336Z,19.95
2017-01-27T04:32:28.816Z,19.98
2017-01-27T04:33:09.307Z,19.97
2017-01-27T04:33:49.800Z,19.97
2017-01-27T04:34:30.299Z,19.93
2017-01-27T04:35:10.779Z,19.98
2017-01-27T04:35:51.267Z,20
2017-01-27T04:36:31.755Z,19.93
2017-01-27T04:37:12.344Z,19.95
2017-01-27T04:37:52.854Z,20
2017-01-27T04:38:33.334Z,20.04
2017-01-27T04:39:13.954Z,19.98
2017-01-27T04:39:54.432Z,20.1
2017-01-27T04:40:35.939Z,20.01
2017-01-27T04:41:16.651Z,20.07
2017-01-27T04:41:57.156Z,19.93
2017-01-27T04:42:37.649Z,19.97
2017-01-27T04:43:18.176Z,19.97
2017-01-27T04:43:58.658Z,19.95
2017-01-27T04:44:39.691Z,20.04
2017-01-27T04:45:20.172Z,19.95
2017-01-27T04:46:00.657Z,20.01
2017-01-27T04:46:41.164Z,19.89
2017-01-27T04:47:21.652Z,20.02
2017-01-27T04:48:02.151Z,20.01
2017-01-27T04:48:42.665Z,19.98
2017-01-27T04:49:23.173Z,19.86
2017-01-27T04:50:03.681Z,19.98
2017-01-27T04:50:44.157Z,19.98
2017-01-27T04:51:24.637Z,19.95
2017-01-27T04:52:05.127Z,19.95
2017-01-27T04:52:45.612Z,20.01
2017-01-27T04:53:26.106Z,19.92
2017-01-27T04:54:06.600Z,19.89
2017-01-27T04:54:47.105Z,19.85
2017-01-27T04:55:27.605Z,19.93
2017-01-27T04:56:08.120Z,19.98
2017-01-27T04:56:48.604Z,20
2017-01-27T04:57:29.105Z,19.95
2017-01-27T04:58:09.596Z,19.95
2017-01-27T04:58:50.091Z,19.98
2017-01-27T04:59:30.603Z,20.01
2017-01-27T05:00:11.085Z,19.97
2017-01-27T05:00:51.607Z,19.9
2017-01-27T05:01:32.082Z,20.02
2017-01-27T05:02:12.571Z,20.04
2017-01-27T05:02:53.057Z,20
2017-01-27T05:03:33.551Z,19.9
2017-01-27T05:04:14.047Z,19.89
2017-01-27T05:04:54.530Z,19.92
2017-01-27T05:05:35.016Z,19.93
2017-01-27T05:06:16.392Z,19.9
2017-01-27T05:06:56.037Z,20.04
2017-01-27T05:07:36.543Z,20.01
2017-01-27T05:08:17.170Z,19.97
2017-01-27T05:08:57.666Z,19.97
2017-01-27T05:09:38.155Z,20
2017-01-27T05:10:18.644Z,19.97
2017-01-27T05:10:59.142Z,20.01
2017-01-27T05:11:39.629Z,19.93
2017-01-27T05:12:20.118Z,20.02
2017-01-27T05:13:00.608Z,20
2017-01-27T05:13:41.110Z,19.95
2017-01-27T05:14:21.595Z,19.95
2017-01-27T05:15:02.103Z,19.87
2017-01-27T05:15:42.919Z,20.05
2017-01-27T05:16:25.481Z,20.04
2017-01-27T05:17:05.970Z,19.9
2017-01-27T05:17:46.448Z,19.97
2017-01-27T05:18:26.940Z,19.87
2017-01-27T05:19:07.426Z,19.92
2017-01-27T05:19:47.912Z,19.85
2017-01-27T05:20:28.410Z,19.89
2017-01-27T05:21:08.899Z,20
2017-01-27T05:21:49.387Z,20
2017-01-27T05:22:29.864Z,19.9
2017-01-27T05:23:10.361Z,19.9
2017-01-27T05:23:50.855Z,19.83
2017-01-27T05:24:31.348Z,19.92
2017-01-27T05:25:11.832Z,19.9
2017-01-27T05:25:52.315Z,19.86
2017-01-27T05:26:32.816Z,19.95
2017-01-27T05:27:13.289Z,19.89
2017-01-27T05:27:53.793Z,19.85
2017-01-27T05:28:34.272Z,19.87
2017-01-27T05:29:14.760Z,19.97
2017-01-27T05:29:55.267Z,19.95
2017-01-27T05:30:35.755Z,19.92
2017-01-27T05:31:16.245Z,19.98
2017-01-27T05:31:56.774Z,19.89
2017-01-27T05:32:38.363Z,19.93
2017-01-27T05:33:18.854Z,19.98
2017-01-27T05:33:59.346Z,19.98
2017-01-27T05:34:39.839Z,20.02
2017-01-27T05:35:20.325Z,20
2017-01-27T05:36:00.819Z,19.93
2017-01-27T05:36:41.315Z,19.95
2017-01-27T05:37:21.807Z,19.92
2017-01-27T05:38:02.295Z,20
2017-01-27T05:38:42.788Z,19.92
2017-01-27T05:39:23.286Z,19.98
2017-01-27T05:40:03.782Z,19.9
2017-01-27T05:40:44.279Z,20.02
2017-01-27T05:41:24.760Z,19.93
2017-01-27T05:42:05.254Z,19.86
2017-01-27T05:42:45.737Z,19.95
2017-01-27T05:43:26.230Z,19.98
2017-01-27T05:44:06.732Z,19.97
2017-01-27T05:44:47.216Z,20.01
2017-01-27T05:45:27.705Z,20.01
2017-01-27T05:46:08.182Z,20
2017-01-27T05:46:48.668Z,20.07
2017-01-27T05:47:29.168Z,19.97
2017-01-27T05:48:09.679Z,19.98
2017-01-27T05:48:50.183Z,19.97
2017-01-27T05:49:30.666Z,20.02
2017-01-27T05:50:11.172Z,20.02
2017-01-27T05:50:51.668Z,19.95
2017-01-27T05:51:32.171Z,19.9
2017-01-27T05:52:12.663Z,19.89
2017-01-27T05:52:53.169Z,20
2017-01-27T05:53:33.651Z,19.87
2017-01-27T05:54:14.145Z,19.93
2017-01-27T05:54:54.625Z,20.01
2017-01-27T05:55:35.122Z,20.01
2017-01-27T05:56:15.616Z,19.98
2017-01-27T05:56:56.101Z,19.93
2017-01-27T05:57:36.610Z,19.93
2017-01-27T05:58:17.120Z,19.93
2017-01-27T05:58:57.611Z,19.95
2017-01-27T05:59:38.114Z,19.9
2017-01-27T06:00:18.611Z,19.97
2017-01-27T06:00:59.105Z,20
2017-01-27T06:01:39.609Z,19.95
2017-01-27T06:02:20.106Z,19.87
2017-01-27T06:03:00.614Z,19.95
2017-01-27T06:03:41.126Z,19.9
2017-01-27T06:04:21.685Z,19.95
2017-01-27T06:05:02.165Z,19.97
2017-01-27T06:05:42.659Z,19.95
2017-01-27T06:06:23.157Z,19.86
2017-01-27T06:07:03.643Z,20
2017-01-27T06:07:44.135Z,19.95
2017-01-27T06:08:24.632Z,19.85
2017-01-27T06:09:05.129Z,19.89
2017-01-27T06:09:45.609Z,19.93
2017-01-27T06:10:26.090Z,19.95
2017-01-27T06:11:06.577Z,19.95
2017-01-27T06:11:47.072Z,19.95
2017-01-27T06:12:27.570Z,19.9
2017-01-27T06:13:08.063Z,19.95
2017-01-27T06:13:48.550Z,19.98
2017-01-27T06:14:29.222Z,19.93
2017-01-27T06:15:09.707Z,20.01
2017-01-27T06:15:50.201Z,19.95
2017-01-27T06:16:30.703Z,20.05
2017-01-27T06:17:11.198Z,20
2017-01-27T06:17:51.731Z,20.07
2017-01-27T06:18:32.200Z,20.01
2017-01-27T06:19:12.697Z,20
2017-01-27T06:19:53.190Z,20
2017-01-27T06:20:33.693Z,20.07
2017-01-27T06:21:14.187Z,20.01
2017-01-27T06:21:54.679Z,19.9
2017-01-27T06:22:35.189Z,19.87
2017-01-27T06:23:15.686Z,20
2017-01-27T06:23:56.353Z,19.98
2017-01-27T06:24:36.847Z,19.95
2017-01-27T06:25:17.347Z,19.9
2017-01-27T06:25:57.846Z,19.92
2017-01-27T06:26:38.343Z,19.95
2017-01-27T06:27:18.845Z,20.12
2017-01-27T06:27:59.341Z,19.97
2017-01-27T06:28:39.839Z,19.9
2017-01-27T06:29:20.343Z,19.93
2017-01-27T06:30:00.846Z,19.97
2017-01-27T06:30:41.337Z,19.89
2017-01-27T06:31:21.864Z,19.93
2017-01-27T06:32:02.360Z,19.97
2017-01-27T06:32:42.858Z,19.98
2017-01-27T06:33:23.341Z,19.93
2017-01-27T06:34:03.827Z,20.01
2017-01-27T06:34:44.313Z,19.9
2017-01-27T06:35:24.795Z,20.04
2017-01-27T06:36:05.282Z,19.97
2017-01-27T06:36:45.781Z,19.86
2017-01-27T06:37:26.268Z,19.85
2017-01-27T06:38:06.760Z,19.95
2017-01-27T06:38:47.256Z,19.85
2017-01-27T06:39:27.748Z,19.87
2017-01-27T06:40:08.246Z,20
2017-01-27T06:40:48.717Z,19.97
2017-01-27T06:41:29.203Z,19.95
2017-01-27T06:42:09.703Z,19.98
2017-01-27T06:42:50.284Z,19.98
2017-01-27T06:43:30.785Z,20.04
2017-01-27T06:44:11.281Z,20.01
2017-01-27T06:44:51.779Z,20.04
2017-01-27T06:45:32.262Z,20.05
2017-01-27T06:46:13.770Z,19.97
2017-01-27T06:46:54.386Z,19.98
2017-01-27T06:47:34.876Z,20
2017-01-27T06:48:15.369Z,19.97
2017-01-27T06:48:55.864Z,19.95
2017-01-27T06:49:36.349Z,19.9
2017-01-27T06:50:16.838Z,20.05
2017-01-27T06:50:57.336Z,19.97
2017-01-27T06:51:37.835Z,19.98
2017-01-27T06:52:18.321Z,20.01
2017-01-27T06:52:58.815Z,20.02
2017-01-27T06:53:39.314Z,20
2017-01-27T06:54:19.797Z,20.05
2017-01-27T06:55:00.287Z,19.95
2017-01-27T06:55:40.788Z,20.15
2017-01-27T06:56:21.278Z,20.1
2017-01-27T06:57:01.765Z,20.16
2017-01-27T06:57:42.250Z,20.07
2017-01-27T06:58:22.756Z,19.93
2017-01-27T06:59:03.241Z,20.04
2017-01-27T06:59:43.725Z,20.12
2017-01-27T07:00:24.212Z,20.04
2017-01-27T07:01:04.706Z,19.98
2017-01-27T07:01:45.204Z,20.11
2017-01-27T07:02:25.687Z,20.16
2017-01-27T07:03:06.175Z,19.97
2017-01-27T07:03:46.681Z,20.07
2017-01-27T07:04:27.159Z,20.05
2017-01-27T07:05:07.654Z,20.02
2017-01-27T07:05:48.149Z,19.95
2017-01-27T07:06:28.645Z,20
2017-01-27T07:07:09.137Z,20.02
2017-01-27T07:07:49.628Z,19.92
2017-01-27T07:08:30.121Z,20.02
2017-01-27T07:09:10.609Z,20
2017-01-27T07:09:51.097Z,20.15
2017-01-27T07:10:31.595Z,20.05
2017-01-27T07:11:12.095Z,20.19
2017-01-27T07:11:52.582Z,20.1
2017-01-27T07:12:33.069Z,20.01
2017-01-27T07:13:13.553Z,20.15
2017-01-27T07:13:54.059Z,20.08
2017-01-27T07:14:34.558Z,20.07
2017-01-27T07:15:15.052Z,20.04
2017-01-27T07:15:55.558Z,20.01
2017-01-27T07:16:36.062Z,20.07
2017-01-27T07:17:16.567Z,20.02
2017-01-27T07:17:57.065Z,20.04
2017-01-27T07:18:37.564Z,20.08
2017-01-27T07:19:18.067Z,20.08
2017-01-27T07:19:58.558Z,20.11
2017-01-27T07:20:39.073Z,20.16
2017-01-27T07:21:19.535Z,20.15
2017-01-27T07:22:00.020Z,20.12
2017-01-27T07:22:40.536Z,20.1
2017-01-27T07:23:21.016Z,20.02
2017-01-27T07:24:01.508Z,20.08
2017-01-27T07:24:42.240Z,19.93
2017-01-27T07:25:22.735Z,19.98
2017-01-27T07:26:03.233Z,20
2017-01-27T07:26:43.725Z,20.04
2017-01-27T07:27:24.215Z,20.01
2017-01-27T07:28:04.693Z,20.02
2017-01-27T07:28:45.184Z,20.12
2017-01-27T07:29:25.679Z,20.18
2017-01-27T07:30:06.173Z,20.15
2017-01-27T07:30:46.666Z,20.18
2017-01-27T07:31:27.152Z,20.15
2017-01-27T07:32:07.646Z,20.15
2017-01-27T07:32:48.138Z,20.11
2017-01-27T07:33:28.648Z,20.16
2017-01-27T07:34:09.146Z,20.15
2017-01-27T07:34:49.651Z,20.11
2017-01-27T07:35:31.064Z,20.16
2017-01-27T07:36:11.578Z,20.11
2017-01-27T07:36:52.085Z,20.22
2017-01-27T07:37:32.565Z,20.11
2017-01-27T07:38:13.061Z,20.18
2017-01-27T07:38:53.562Z,20.26
2017-01-27T07:39:34.057Z,20.27
2017-01-27T07:40:14.602Z,20.26
2017-01-27T07:40:55.037Z,20.22
2017-01-27T07:41:35.529Z,20.2
2017-01-27T07:42:16.002Z,20.3
2017-01-27T07:42:56.509Z,20.26
2017-01-27T07:43:37.010Z,20.25
2017-01-27T07:44:17.498Z,20.37
2017-01-27T07:44:58.000Z,20.27
2017-01-27T07:45:38.512Z,20.41
2017-01-27T07:46:19.007Z,20.35
2017-01-27T07:46:59.497Z,20.34
2017-01-27T07:47:39.985Z,20.38
2017-01-27T07:48:20.481Z,20.4
2017-01-27T07:49:00.976Z,20.4
2017-01-27T07:49:41.458Z,20.38
2017-01-27T07:50:21.952Z,20.37
2017-01-27T07:51:02.447Z,20.44
2017-01-27T07:51:42.948Z,20.44
2017-01-27T07:52:23.448Z,20.51
2017-01-27T07:53:03.942Z,20.46
2017-01-27T07:53:44.433Z,20.51
2017-01-27T07:54:24.925Z,20.64
2017-01-27T07:55:05.419Z,20.64
2017-01-27T07:55:45.899Z,20.57
2017-01-27T07:56:26.392Z,20.61
2017-01-27T07:57:06.892Z,20.53
2017-01-27T07:57:47.390Z,20.56
2017-01-27T07:58:27.888Z,20.64
2017-01-27T07:59:08.389Z,20.68
2017-01-27T07:59:49.073Z,20.75
2017-01-27T08:00:29.555Z,20.78
2017-01-27T08:01:10.042Z,20.76
2017-01-27T08:01:50.539Z,20.83
2017-01-27T08:02:31.030Z,20.9
2017-01-27T08:03:11.519Z,20.98
2017-01-27T08:03:52.010Z,20.9
2017-01-27T08:04:32.508Z,20.93
2017-01-27T08:05:12.995Z,20.93
2017-01-27T08:05:53.490Z,20.91
2017-01-27T08:06:33.986Z,20.98
2017-01-27T08:07:14.490Z,21.12
2017-01-27T08:07:54.994Z,21.12
2017-01-27T08:08:35.488Z,21.15
2017-01-27T08:09:15.982Z,21.23
2017-01-27T08:09:56.463Z,21.16
2017-01-27T08:10:37.058Z,21.15
2017-01-27T08:11:17.539Z,21.15
2017-01-27T08:11:58.037Z,21.19
2017-01-27T08:12:38.535Z,21.21
2017-01-27T08:13:19.035Z,21.22
2017-01-27T08:13:59.537Z,21.21
2017-01-27T08:14:40.033Z,21.27
2017-01-27T08:15:20.532Z,21.3
2017-01-27T08:16:01.024Z,21.31
2017-01-27T08:16:41.523Z,21.31
2017-01-27T08:17:22.030Z,21.33
2017-01-27T08:18:02.527Z,21.36
2017-01-27T08:18:43.020Z,21.43
2017-01-27T08:19:23.504Z,21.4
2017-01-27T08:20:03.997Z,21.51
2017-01-27T08:20:44.499Z,21.49
2017-01-27T08:21:24.987Z,21.55
2017-01-27T08:22:05.466Z,21.66
2017-01-27T08:22:45.971Z,21.55
2017-01-27T08:23:28.484Z,21.62
2017-01-27T08:24:07.099Z,21.66
2017-01-27T08:24:47.595Z,21.68
2017-01-27T08:25:28.288Z,21.76
2017-01-27T08:26:08.779Z,21.8
2017-01-27T08:26:49.272Z,21.77
2017-01-27T08:27:29.779Z,21.85
2017-01-27T08:28:10.282Z,21.92
2017-01-27T08:28:50.767Z,21.92
2017-01-27T08:29:31.266Z,22.04
2017-01-27T08:30:11.777Z,22.02
2017-01-27T08:30:52.264Z,22.04
2017-01-27T08:31:32.759Z,22.04
2017-01-27T08:32:13.247Z,22.11
2017-01-27T08:32:53.744Z,22.16
2017-01-27T08:33:34.273Z,22.11
2017-01-27T08:34:14.720Z,22.08
2017-01-27T08:34:55.216Z,22.15
2017-01-27T08:35:35.714Z,22.27
2017-01-27T08:36:16.219Z,22.27
2017-01-27T08:36:56.717Z,22.29
2017-01-27T08:37:37.212Z,22.26
2017-01-27T08:38:17.714Z,22.36
2017-01-27T08:38:58.206Z,22.26
2017-01-27T08:39:38.697Z,22.38
2017-01-27T08:40:19.187Z,22.39
2017-01-27T08:40:59.680Z,22.42
2017-01-27T08:41:40.321Z,22.51
2017-01-27T08:42:20.994Z,22.51
2017-01-27T08:43:02.482Z,22.57
2017-01-27T08:43:42.992Z,22.61
2017-01-27T08:44:23.486Z,22.6
2017-01-27T08:45:03.977Z,22.66
2017-01-27T08:45:44.476Z,22.59
2017-01-27T08:46:24.976Z,22.59
2017-01-27T08:47:05.460Z,22.57